HELX

Luxor International Airport

Luxor, Egypt
METAR HELX 241400Z 31012KT CAVOK 40/15 Q1004 NOSIG
Observed Flight Rules
Jun-24 @ 14:00 UTC (an hour ago) Visual Flight Rules
Wind Visibility Clouds
310° at 12 knots 10,000+ meters
  • Clear skies
Temperatures Readings
Current 40°C / 104°F
Dewpoint 15°C / 59°F
Humidity 23%
Altimeter 29.65" Hg
Pressure 1004 hPa
Elevation 88
METAR HELX 241400Z 31012KT CAVOK 40/15 Q1004 NOSIG
Observed Flight Rules
Jun-24 @ 14:00 UTC
(an hour ago)
VFR
Wind Visibility
310° at 12 knots 10,000+ meters
Clouds
  • Clear skies
Temperature Dewpoint
40°C / 104°F 15°C / 59°F
Humidity Altimeter Pressure
23% 29.65" Hg 1004 hPa